Time;durP1;ratioP1;P1;durP2;ratioP2;P2;SDS_P1;SDS_P2;PMS_P1;PMS_P2;Temp;Humidity;BMP_temperature;BMP_pressure;BME280_temperature;BME280_humidity;BME280_pressure;Samples;Min_cycle;Max_cycle;Signal;HPM_P1;HPM_P2
2023/03/21 00:00:49;;;;;;;7.40;5.67;;;4.90;99.90;;;;;;5093845;28;20214;-77
2023/03/21 00:03:17;;;;;;;7.63;5.30;;;4.90;99.90;;;;;;5094788;28;20246;-76
2023/03/21 00:05:48;;;;;;;8.10;5.80;;;4.90;99.90;;;;;;5095249;28;20226;-77
2023/03/21 00:08:18;;;;;;;7.97;5.70;;;4.90;99.90;;;;;;5094523;28;20569;-78
2023/03/21 00:10:46;;;;;;;7.33;5.50;;;4.80;99.90;;;;;;5095268;28;20234;-76
2023/03/21 00:13:15;;;;;;;8.80;5.50;;;4.90;99.90;;;;;;5094854;28;20257;-78
2023/03/21 00:15:53;;;;;;;7.80;5.90;;;4.90;99.90;;;;;;5095060;28;20230;-77
2023/03/21 00:18:40;;;;;;;6.80;5.47;;;5.00;99.90;;;;;;5075179;28;20757;-78
2023/03/21 00:21:11;;;;;;;8.17;5.07;;;5.00;99.90;;;;;;5074928;28;20606;-77
2023/03/21 00:24:00;;;;;;;6.87;5.27;;;5.10;99.90;;;;;;5074132;28;20211;-78
2023/03/21 00:26:29;;;;;;;7.43;5.00;;;5.10;99.90;;;;;;5089368;28;20226;-76
2023/03/21 00:28:57;;;;;;;6.47;5.07;;;5.20;99.90;;;;;;5095027;28;20211;-76
2023/03/21 00:31:26;;;;;;;6.07;5.17;;;5.20;99.90;;;;;;5094630;28;20235;-77
2023/03/21 00:33:55;;;;;;;5.80;4.80;;;5.30;99.90;;;;;;5094391;28;20223;-77
2023/03/21 00:36:27;;;;;;;7.43;5.40;;;5.30;99.90;;;;;;5094082;28;20309;-76
2023/03/21 00:38:55;;;;;;;6.90;5.30;;;5.40;99.90;;;;;;5094664;28;20253;-77
2023/03/21 00:41:26;;;;;;;6.90;4.90;;;5.40;99.90;;;;;;5094371;28;20325;-78
2023/03/21 00:44:10;;;;;;;5.70;4.60;;;5.50;99.90;;;;;;5093166;28;20214;-77
2023/03/21 00:46:39;;;;;;;6.10;4.40;;;5.60;99.90;;;;;;5094251;28;20230;-77
2023/03/21 00:49:22;;;;;;;5.60;4.50;;;5.70;99.90;;;;;;5094416;28;20638;-77
2023/03/21 00:51:51;;;;;;;5.93;4.67;;;5.70;99.90;;;;;;5093508;28;20253;-78
2023/03/21 00:54:27;;;;;;;5.23;4.47;;;5.80;99.90;;;;;;5094438;28;20641;-76
2023/03/21 00:56:55;;;;;;;6.10;4.57;;;5.80;99.90;;;;;;5094421;28;20203;-77
2023/03/21 00:59:28;;;;;;;6.47;4.60;;;5.90;99.90;;;;;;5093288;28;20199;-78
2023/03/21 01:01:59;;;;;;;5.10;4.37;;;5.90;99.90;;;;;;5094287;28;20240;-76
2023/03/21 01:04:30;;;;;;;5.43;4.30;;;6.00;99.90;;;;;;5094438;28;20211;-76
2023/03/21 01:06:58;;;;;;;7.07;4.40;;;6.00;99.90;;;;;;5094574;28;20215;-76
2023/03/21 01:09:27;;;;;;;8.90;4.43;;;6.00;99.90;;;;;;5092902;28;20572;-78
2023/03/21 01:11:55;;;;;;;7.17;4.40;;;6.00;99.90;;;;;;5093419;28;20315;-77
2023/03/21 01:14:24;;;;;;;4.73;4.10;;;6.10;99.90;;;;;;5094547;28;20221;-75
2023/03/21 01:16:56;;;;;;;5.57;3.97;;;6.10;99.90;;;;;;5093144;28;20201;-76
2023/03/21 01:19:27;;;;;;;5.73;4.00;;;6.20;99.90;;;;;;5094215;28;20218;-76
2023/03/21 01:22:11;;;;;;;5.53;4.20;;;6.20;99.90;;;;;;5093610;28;20211;-78
2023/03/21 01:24:44;;;;;;;4.97;3.80;;;6.20;99.90;;;;;;5093906;28;20229;-76
2023/03/21 01:27:22;;;;;;;6.90;3.73;;;6.30;99.90;;;;;;5093250;28;20854;-78
2023/03/21 01:29:50;;;;;;;4.73;4.03;;;6.30;99.90;;;;;;5093642;28;20210;-76
2023/03/21 01:32:19;;;;;;;5.17;3.70;;;6.30;99.90;;;;;;5093634;28;20326;-75
2023/03/21 01:34:48;;;;;;;4.83;3.83;;;6.40;99.90;;;;;;5092268;28;20313;-77
2023/03/21 01:37:17;;;;;;;6.07;4.27;;;6.40;99.90;;;;;;5093417;28;20618;-75
2023/03/21 01:39:45;;;;;;;5.17;3.70;;;6.40;99.90;;;;;;5093288;28;20206;-78
2023/03/21 01:42:14;;;;;;;6.80;4.10;;;6.40;99.90;;;;;;5093230;28;20214;-77
2023/03/21 01:44:54;;;;;;;6.27;3.77;;;6.40;99.90;;;;;;5092728;28;20645;-76
2023/03/21 01:47:24;;;;;;;5.80;3.80;;;6.50;99.90;;;;;;5093052;28;20576;-76
2023/03/21 01:49:56;;;;;;;6.33;3.77;;;6.50;99.90;;;;;;5092963;28;20241;-77
2023/03/21 01:52:27;;;;;;;5.23;4.33;;;6.50;99.90;;;;;;5092135;28;20191;-78
2023/03/21 01:55:10;;;;;;;7.37;4.10;;;6.50;99.90;;;;;;5093590;28;20198;-78
2023/03/21 01:57:46;;;;;;;6.23;3.90;;;6.50;99.90;;;;;;5093577;28;20301;-76
2023/03/21 02:00:32;;;;;;;4.57;3.87;;;6.50;99.90;;;;;;5093322;28;20199;-78
2023/03/21 02:03:07;;;;;;;7.27;3.57;;;6.50;99.90;;;;;;5092489;28;20741;-78
2023/03/21 02:05:53;;;;;;;6.07;3.80;;;6.50;99.90;;;;;;5094331;28;20187;-77
2023/03/21 02:08:23;;;;;;;7.40;4.53;;;6.50;99.90;;;;;;5093315;28;20218;-77
2023/03/21 02:11:06;;;;;;;7.63;4.57;;;6.50;99.90;;;;;;5092599;28;20194;-77
2023/03/21 02:13:36;;;;;;;6.10;4.20;;;6.50;99.90;;;;;;5092492;28;20246;-77
2023/03/21 02:16:15;;;;;;;7.50;4.70;;;6.50;99.90;;;;;;5092769;28;20183;-77
2023/03/21 02:18:52;;;;;;;9.50;4.70;;;6.50;99.90;;;;;;5092658;28;20252;-79
2023/03/21 02:21:43;;;;;;;5.40;4.50;;;6.50;99.90;;;;;;5092432;28;20656;-77
2023/03/21 02:24:59;;;;;;;6.30;4.40;;;6.50;99.90;;;;;;5093280;28;20191;-77
2023/03/21 02:27:40;;;;;;;8.63;4.83;;;6.50;99.90;;;;;;5092052;28;20242;-78
2023/03/21 02:30:37;;;;;;;7.10;4.33;;;6.50;99.90;;;;;;5092864;28;20238;-77
2023/03/21 02:33:52;;;;;;;7.43;4.93;;;6.50;99.90;;;;;;5092115;28;20207;-77
2023/03/21 02:36:55;;;;;;;5.83;4.30;;;6.50;99.90;;;;;;5091476;28;20305;-78
2023/03/21 02:39:29;;;;;;;7.73;4.93;;;6.50;99.90;;;;;;5072359;28;20220;-76
2023/03/21 02:42:05;;;;;;;5.57;4.47;;;6.50;99.90;;;;;;5072230;28;20234;-77
2023/03/21 02:44:41;;;;;;;6.03;4.40;;;6.40;99.90;;;;;;5086567;28;20668;-76
2023/03/21 02:47:14;;;;;;;5.60;4.33;;;6.50;99.90;;;;;;5092588;28;20243;-76
2023/03/21 02:49:48;;;;;;;6.47;4.40;;;6.40;99.90;;;;;;5092550;28;20245;-75
2023/03/21 02:52:21;;;;;;;6.07;4.40;;;6.50;99.90;;;;;;5091099;28;20210;-75
2023/03/21 02:55:12;;;;;;;5.80;4.40;;;6.40;99.90;;;;;;5092699;28;20245;-76
2023/03/21 02:57:43;;;;;;;5.57;4.47;;;6.40;99.90;;;;;;5092043;28;20196;-76
2023/03/21 03:00:15;;;;;;;6.07;4.40;;;6.50;99.90;;;;;;5090948;28;20289;-78
2023/03/21 03:02:45;;;;;;;6.27;4.30;;;6.50;99.90;;;;;;5091723;28;20203;-76
2023/03/21 03:05:18;;;;;;;5.50;4.10;;;6.50;99.90;;;;;;5092299;28;20234;-75
2023/03/21 03:08:17;;;;;;;5.17;4.40;;;6.50;99.90;;;;;;5091973;28;20217;-78
2023/03/21 03:10:58;;;;;;;5.17;4.30;;;6.50;99.90;;;;;;5089535;28;20211;-76
2023/03/21 03:13:38;;;;;;;5.93;4.37;;;6.50;99.90;;;;;;5091924;28;20217;-76
2023/03/21 03:16:17;;;;;;;5.67;4.33;;;6.50;99.90;;;;;;5092067;28;20195;-77
2023/03/21 03:18:52;;;;;;;5.60;4.50;;;6.50;99.90;;;;;;5090887;28;20191;-77
2023/03/21 03:21:27;;;;;;;6.10;4.23;;;6.50;99.90;;;;;;5091903;28;20225;-78
2023/03/21 03:24:00;;;;;;;5.93;4.30;;;6.50;99.90;;;;;;5091934;28;20204;-78
2023/03/21 03:26:33;;;;;;;4.87;4.20;;;6.50;99.90;;;;;;5092029;28;20217;-77
2023/03/21 03:29:06;;;;;;;5.80;4.33;;;6.50;99.90;;;;;;5090877;28;20621;-76
2023/03/21 03:31:37;;;;;;;5.07;4.30;;;6.50;99.90;;;;;;5091946;28;20214;-75
2023/03/21 03:34:10;;;;;;;5.60;4.50;;;6.50;99.90;;;;;;5093595;28;20301;-78
2023/03/21 03:36:42;;;;;;;4.57;4.10;;;6.50;99.90;;;;;;5095176;28;20207;-78
2023/03/21 03:39:14;;;;;;;6.03;4.33;;;6.50;99.90;;;;;;5095971;28;20248;-77
2023/03/21 03:41:45;;;;;;;6.33;4.60;;;6.50;99.90;;;;;;5095767;28;20648;-76
2023/03/21 03:44:35;;;;;;;4.70;3.97;;;6.50;99.90;;;;;;5094834;28;20677;-76
2023/03/21 03:47:08;;;;;;;4.67;4.23;;;6.50;99.90;;;;;;5096022;28;20229;-76
2023/03/21 03:49:43;;;;;;;6.23;4.30;;;6.50;99.90;;;;;;5095584;28;20648;-76
2023/03/21 03:52:17;;;;;;;5.63;4.33;;;6.60;99.90;;;;;;5095585;28;20198;-76
2023/03/21 03:54:49;;;;;;;8.83;4.70;;;6.50;99.90;;;;;;5095136;28;20217;-78
2023/03/21 03:57:18;;;;;;;4.53;3.97;;;6.50;99.90;;;;;;5095862;28;20266;-76
2023/03/21 03:59:47;;;;;;;5.83;4.20;;;6.60;99.90;;;;;;5095613;28;20203;-77
2023/03/21 04:02:16;;;;;;;5.10;4.17;;;6.50;99.90;;;;;;5095590;28;20233;-77
2023/03/21 04:04:44;;;;;;;4.77;4.00;;;6.50;99.90;;;;;;5095700;28;20225;-78
2023/03/21 04:07:13;;;;;;;6.73;4.40;;;6.60;99.90;;;;;;5095614;28;20226;-78
2023/03/21 04:09:41;;;;;;;5.43;4.30;;;6.60;99.90;;;;;;5095551;28;20567;-77
2023/03/21 04:12:13;;;;;;;5.27;4.27;;;6.60;99.90;;;;;;5094653;28;20207;-75
2023/03/21 04:14:41;;;;;;;6.17;4.57;;;6.60;99.90;;;;;;5095612;28;20293;-77
2023/03/21 04:17:14;;;;;;;5.03;4.27;;;6.60;99.90;;;;;;5095682;28;20214;-79
2023/03/21 04:19:45;;;;;;;6.47;4.60;;;6.60;99.90;;;;;;5094658;28;20203;-77
2023/03/21 04:22:13;;;;;;;5.30;4.63;;;6.60;99.90;;;;;;5095407;28;20246;-76
2023/03/21 04:24:41;;;;;;;4.87;4.00;;;6.60;99.90;;;;;;5095473;28;20237;-76
2023/03/21 04:27:10;;;;;;;5.70;4.43;;;6.60;99.90;;;;;;5097146;28;20313;-77
2023/03/21 04:29:39;;;;;;;5.27;4.73;;;6.60;99.90;;;;;;5095329;28;20257;-76
2023/03/21 04:32:15;;;;;;;6.47;4.80;;;6.70;99.90;;;;;;5094733;28;20258;-78
2023/03/21 04:34:48;;;;;;;6.83;4.70;;;6.60;99.90;;;;;;5094875;28;20232;-75
2023/03/21 04:37:23;;;;;;;6.77;4.40;;;6.70;99.90;;;;;;5094021;28;20203;-77
2023/03/21 04:39:51;;;;;;;4.90;4.30;;;6.70;99.90;;;;;;5094671;28;20205;-78
2023/03/21 04:42:20;;;;;;;6.00;4.57;;;6.70;99.90;;;;;;5094286;28;20206;-77
2023/03/21 04:44:49;;;;;;;8.03;4.53;;;6.70;99.90;;;;;;5093883;28;20205;-76
2023/03/21 04:47:19;;;;;;;6.03;4.70;;;6.70;99.90;;;;;;5094650;28;20215;-77
2023/03/21 04:49:48;;;;;;;5.87;4.43;;;6.70;99.90;;;;;;5094475;28;20294;-77
2023/03/21 04:52:16;;;;;;;4.97;3.90;;;6.70;99.90;;;;;;5094689;28;20217;-76
2023/03/21 04:54:44;;;;;;;5.63;4.10;;;6.80;99.90;;;;;;5093647;28;20735;-77
2023/03/21 04:57:12;;;;;;;6.33;4.17;;;6.80;99.90;;;;;;5094120;28;20692;-78
2023/03/21 04:59:40;;;;;;;5.20;4.50;;;6.70;99.90;;;;;;5094907;28;20215;-77
2023/03/21 05:02:10;;;;;;;6.83;4.47;;;6.80;99.90;;;;;;5094253;28;20214;-78
2023/03/21 05:04:39;;;;;;;6.77;5.20;;;6.70;99.90;;;;;;5094743;28;20306;-76
2023/03/21 05:07:08;;;;;;;7.07;4.53;;;6.70;99.90;;;;;;5094752;28;20238;-77
2023/03/21 05:09:36;;;;;;;7.20;4.83;;;6.70;99.90;;;;;;5094365;28;20656;-76
2023/03/21 05:12:04;;;;;;;6.07;5.07;;;6.70;99.90;;;;;;5093408;28;20268;-76
2023/03/21 05:14:32;;;;;;;5.90;4.50;;;6.70;99.90;;;;;;5094061;28;20218;-77
2023/03/21 05:17:03;;;;;;;7.77;4.93;;;6.60;99.90;;;;;;5094315;28;20213;-77
2023/03/21 05:19:39;;;;;;;7.60;5.63;;;6.60;99.90;;;;;;5093310;28;20203;-77
2023/03/21 05:22:10;;;;;;;7.83;5.93;;;6.60;99.90;;;;;;5093834;28;20737;-76
2023/03/21 05:24:40;;;;;;;12.53;7.37;;;6.60;99.90;;;;;;5094091;28;20198;-75
2023/03/21 05:27:08;;;;;;;9.60;6.50;;;6.60;99.90;;;;;;5094094;28;20665;-75
2023/03/21 05:29:37;;;;;;;8.67;6.47;;;6.60;99.90;;;;;;5092639;28;20737;-76
2023/03/21 05:32:05;;;;;;;7.37;6.10;;;6.60;99.90;;;;;;5093627;28;20213;-76
2023/03/21 05:34:35;;;;;;;8.17;6.00;;;6.60;99.90;;;;;;5093438;28;20258;-76
2023/03/21 05:37:03;;;;;;;7.70;6.00;;;6.60;99.90;;;;;;5093227;28;20290;-76
2023/03/21 05:39:31;;;;;;;6.70;5.60;;;6.70;99.90;;;;;;5093763;28;20206;-75
2023/03/21 05:42:00;;;;;;;7.03;5.40;;;6.70;99.90;;;;;;5093415;28;20211;-78
2023/03/21 05:44:29;;;;;;;5.90;5.30;;;6.70;99.90;;;;;;5093706;28;20249;-77
2023/03/21 05:46:57;;;;;;;6.13;5.17;;;6.90;99.90;;;;;;5093539;28;20301;-76
2023/03/21 05:49:25;;;;;;;7.23;5.30;;;6.90;99.90;;;;;;5093345;28;20715;-76
2023/03/21 05:51:55;;;;;;;8.00;5.73;;;7.00;99.90;;;;;;5093654;28;20209;-76
2023/03/21 05:54:28;;;;;;;6.17;4.90;;;7.10;99.90;;;;;;5093926;28;20217;-76
2023/03/21 05:56:57;;;;;;;5.07;4.57;;;7.10;99.90;;;;;;5093215;28;20206;-76
2023/03/21 05:59:25;;;;;;;6.10;5.30;;;7.20;99.90;;;;;;5095771;28;20221;-75
2023/03/21 06:01:53;;;;;;;6.10;5.23;;;7.20;99.90;;;;;;5094114;28;20215;-78
2023/03/21 06:04:22;;;;;;;6.93;4.83;;;7.20;99.90;;;;;;5094474;28;20779;-76
2023/03/21 06:06:52;;;;;;;6.70;5.27;;;7.20;99.90;;;;;;5094176;28;20210;-76
2023/03/21 06:09:23;;;;;;;5.20;4.70;;;7.30;99.90;;;;;;5093162;28;20755;-76
2023/03/21 06:11:53;;;;;;;6.10;5.00;;;7.30;99.90;;;;;;5093158;28;20623;-77
2023/03/21 06:14:22;;;;;;;7.33;5.20;;;7.40;99.90;;;;;;5093140;28;20653;-75
2023/03/21 06:16:52;;;;;;;8.63;5.03;;;7.50;99.90;;;;;;5092316;28;20245;-76
2023/03/21 06:19:22;;;;;;;7.90;5.50;;;7.50;99.90;;;;;;5093104;28;20228;-77
2023/03/21 06:21:50;;;;;;;6.80;5.50;;;7.60;99.90;;;;;;5092789;28;20214;-78
2023/03/21 06:24:18;;;;;;;10.07;5.60;;;7.70;99.90;;;;;;5092498;28;20203;-77
2023/03/21 06:26:48;;;;;;;9.93;7.57;;;7.80;99.90;;;;;;5093187;28;20234;-78
2023/03/21 06:29:16;;;;;;;9.53;6.67;;;7.80;99.90;;;;;;5094181;28;20223;-76
2023/03/21 06:31:45;;;;;;;10.20;5.90;;;7.90;99.90;;;;;;5092960;28;20267;-76
2023/03/21 06:34:13;;;;;;;8.83;5.67;;;8.00;99.90;;;;;;5092026;28;20213;-76
2023/03/21 06:36:43;;;;;;;8.30;5.60;;;8.10;99.90;;;;;;5092624;28;20751;-76
2023/03/21 06:39:12;;;;;;;7.43;5.33;;;8.20;99.90;;;;;;5092865;28;20290;-75
2023/03/21 06:41:40;;;;;;;7.60;5.23;;;8.30;99.90;;;;;;5091645;28;20242;-77
2023/03/21 06:44:11;;;;;;;6.57;5.27;;;8.50;99.90;;;;;;5092178;28;20217;-76
2023/03/21 06:46:39;;;;;;;8.67;5.40;;;8.60;99.90;;;;;;5092531;28;20214;-76
2023/03/21 06:49:08;;;;;;;9.13;5.47;;;8.70;99.90;;;;;;5092665;28;20727;-77
2023/03/21 06:51:36;;;;;;;7.17;5.37;;;8.70;99.90;;;;;;5091783;28;20240;-75
2023/03/21 06:54:04;;;;;;;7.40;4.77;;;8.80;99.90;;;;;;5092315;28;20221;-76
2023/03/21 06:56:32;;;;;;;7.60;4.53;;;8.90;99.90;;;;;;5092396;28;20203;-76
2023/03/21 06:59:00;;;;;;;4.80;4.30;;;9.00;99.90;;;;;;5091980;28;20285;-78
2023/03/21 07:01:30;;;;;;;4.97;4.23;;;9.20;99.90;;;;;;5092551;28;20241;-76
2023/03/21 07:03:58;;;;;;;5.40;4.40;;;9.40;99.90;;;;;;5092025;28;20762;-77
2023/03/21 07:06:27;;;;;;;7.17;4.47;;;9.50;99.90;;;;;;5092585;28;20273;-76
2023/03/21 07:08:56;;;;;;;5.07;4.00;;;9.60;99.90;;;;;;5091626;28;20389;-77
2023/03/21 07:11:25;;;;;;;7.67;4.27;;;9.60;99.90;;;;;;5092167;28;20235;-79
2023/03/21 07:13:53;;;;;;;5.83;4.50;;;9.60;99.90;;;;;;5091927;28;20290;-76
2023/03/21 07:16:21;;;;;;;6.03;4.50;;;9.70;99.90;;;;;;5092390;28;20291;-78
2023/03/21 07:18:51;;;;;;;4.93;4.13;;;9.90;99.90;;;;;;5091925;28;20537;-78
2023/03/21 07:21:20;;;;;;;8.47;3.93;;;10.20;99.90;;;;;;5093589;28;20661;-78
2023/03/21 07:23:49;;;;;;;6.87;4.13;;;10.50;99.90;;;;;;5091773;28;20207;-77
2023/03/21 07:26:18;;;;;;;5.50;3.77;;;10.90;99.90;;;;;;5091386;28;20218;-77
2023/03/21 07:28:46;;;;;;;4.33;3.90;;;11.40;99.90;;;;;;5092022;28;20313;-76
2023/03/21 07:31:16;;;;;;;5.90;4.10;;;11.80;99.90;;;;;;5091345;28;20675;-75
2023/03/21 07:33:45;;;;;;;4.70;3.70;;;12.30;99.90;;;;;;5091410;28;20202;-74
2023/03/21 07:36:16;;;;;;;5.43;3.63;;;13.50;99.90;;;;;;5090633;28;20284;-76
2023/03/21 07:38:45;;;;;;;4.40;3.67;;;14.90;99.90;;;;;;5091945;28;20214;-77
2023/03/21 07:41:13;;;;;;;6.00;3.60;;;16.10;99.90;;;;;;5091755;28;20290;-75
2023/03/21 07:43:41;;;;;;;5.50;3.63;;;17.00;99.90;;;;;;5090752;28;20302;-77
2023/03/21 07:46:11;;;;;;;5.13;4.07;;;16.60;99.90;;;;;;5091647;28;20268;-75
2023/03/21 07:48:39;;;;;;;4.33;3.73;;;15.60;99.90;;;;;;5091307;28;20203;-76
2023/03/21 07:51:08;;;;;;;5.83;4.43;;;15.30;99.90;;;;;;5091348;28;20688;-77
2023/03/21 07:53:38;;;;;;;5.53;4.43;;;14.60;99.90;;;;;;5090569;28;20712;-76
2023/03/21 07:56:06;;;;;;;5.10;4.60;;;13.60;99.90;;;;;;5091696;28;20219;-76
2023/03/21 07:58:35;;;;;;;6.07;4.90;;;13.10;99.90;;;;;;5091919;28;20214;-78
2023/03/21 08:01:03;;;;;;;6.30;4.93;;;12.30;99.90;;;;;;5091450;28;20569;-78
2023/03/21 08:03:32;;;;;;;8.07;5.07;;;12.30;99.90;;;;;;5090620;28;20234;-76
2023/03/21 08:06:01;;;;;;;6.77;4.97;;;12.30;99.90;;;;;;5091739;28;20206;-75
2023/03/21 08:08:29;;;;;;;5.40;4.70;;;12.40;99.90;;;;;;5091557;28;20207;-77
2023/03/21 08:10:59;;;;;;;6.77;5.07;;;12.30;99.90;;;;;;5090958;28;20325;-78
2023/03/21 08:13:28;;;;;;;6.83;5.43;;;12.40;99.90;;;;;;5092188;28;20593;-76
2023/03/21 08:15:56;;;;;;;6.90;5.13;;;12.40;99.90;;;;;;5091644;28;20282;-76
2023/03/21 08:18:24;;;;;;;9.93;6.20;;;12.40;99.90;;;;;;5091619;28;20297;-75
2023/03/21 08:20:54;;;;;;;7.27;5.53;;;12.40;99.90;;;;;;5093052;28;20290;-78
2023/03/21 08:23:24;;;;;;;6.90;5.07;;;12.60;99.90;;;;;;5094777;28;20734;-77
2023/03/21 08:25:52;;;;;;;8.70;5.57;;;12.50;99.90;;;;;;5095104;28;20264;-77
2023/03/21 08:28:23;;;;;;;9.37;6.00;;;12.60;99.90;;;;;;5094709;28;20290;-78
2023/03/21 08:30:51;;;;;;;9.60;5.80;;;12.60;99.90;;;;;;5094197;28;20246;-78
2023/03/21 08:33:22;;;;;;;8.23;5.90;;;12.80;99.90;;;;;;5094865;28;20256;-77
2023/03/21 08:35:51;;;;;;;7.03;5.90;;;12.60;99.90;;;;;;5094648;28;20318;-77
2023/03/21 08:38:20;;;;;;;6.30;5.50;;;12.60;99.90;;;;;;5095040;28;20214;-77
2023/03/21 08:40:50;;;;;;;9.13;6.50;;;12.90;99.90;;;;;;5094703;28;20231;-76
2023/03/21 08:43:18;;;;;;;7.47;5.90;;;13.20;99.90;;;;;;5094170;28;20281;-78
2023/03/21 08:45:47;;;;;;;8.27;5.90;;;13.40;99.90;;;;;;5095253;28;20235;-77
2023/03/21 08:48:16;;;;;;;6.37;5.33;;;13.60;99.90;;;;;;5093592;28;20298;-77
2023/03/21 08:50:44;;;;;;;8.40;5.60;;;13.80;99.90;;;;;;5094554;28;20230;-77
2023/03/21 08:53:12;;;;;;;5.90;5.10;;;14.00;99.90;;;;;;5094256;28;20669;-76
2023/03/21 08:55:41;;;;;;;7.23;5.77;;;13.90;99.90;;;;;;5097561;28;20206;-77
2023/03/21 08:58:10;;;;;;;7.37;5.67;;;13.90;99.90;;;;;;5095331;28;20217;-76
2023/03/21 09:00:38;;;;;;;6.93;5.60;;;14.40;99.90;;;;;;5094768;28;20207;-78
2023/03/21 09:03:08;;;;;;;7.33;5.73;;;14.60;99.90;;;;;;5093932;28;20265;-78
2023/03/21 09:05:38;;;;;;;6.90;5.80;;;14.80;99.90;;;;;;5093963;28;20224;-76
2023/03/21 09:08:07;;;;;;;6.40;5.70;;;15.20;99.90;;;;;;5094535;28;20207;-77
2023/03/21 09:10:35;;;;;;;8.07;5.53;;;15.30;99.90;;;;;;5094308;28;20219;-77
2023/03/21 09:13:03;;;;;;;7.33;5.63;;;15.20;99.90;;;;;;5093913;28;20215;-78
2023/03/21 09:15:32;;;;;;;10.87;6.10;;;15.00;99.90;;;;;;5093620;28;20298;-78
2023/03/21 09:18:11;;;;;;;6.13;5.50;;;15.10;99.90;;;;;;5094141;28;20230;-77
2023/03/21 09:20:42;;;;;;;7.17;5.00;;;15.20;99.90;;;;;;5094451;28;20187;-77
2023/03/21 09:23:11;;;;;;;6.90;5.67;;;15.50;99.90;;;;;;5093364;28;20234;-75
2023/03/21 09:25:41;;;;;;;6.90;5.60;;;15.50;99.90;;;;;;5094175;28;20302;-75
2023/03/21 09:28:09;;;;;;;8.20;5.60;;;15.50;99.90;;;;;;5093967;28;20574;-78
2023/03/21 09:30:37;;;;;;;6.73;5.63;;;15.60;99.90;;;;;;5093511;28;20250;-77
2023/03/21 09:33:11;;;;;;;6.40;5.17;;;15.00;99.90;;;;;;5092648;28;20292;-77
2023/03/21 09:35:42;;;;;;;10.57;5.17;;;14.90;99.90;;;;;;5093829;28;20222;-76
2023/03/21 09:38:10;;;;;;;6.83;5.23;;;15.00;99.90;;;;;;5094013;28;20298;-77
2023/03/21 09:40:57;;;;;;;7.07;4.90;;;14.70;99.90;;;;;;5093415;28;20258;-77
2023/03/21 09:43:38;;;;;;;6.27;4.97;;;14.70;99.90;;;;;;5093019;28;20215;-77
2023/03/21 09:46:14;;;;;;;6.33;5.03;;;15.20;99.90;;;;;;5093749;28;20612;-76
2023/03/21 09:48:49;;;;;;;6.93;4.77;;;15.10;99.90;;;;;;5092935;28;20206;-76
2023/03/21 09:51:29;;;;;;;6.93;4.73;;;15.40;99.90;;;;;;5093630;28;20301;-76
2023/03/21 09:54:01;;;;;;;5.97;4.90;;;15.50;99.90;;;;;;5093568;28;20210;-78
2023/03/21 09:56:32;;;;;;;5.63;5.07;;;16.20;99.90;;;;;;5094274;28;20233;-77
2023/03/21 09:59:01;;;;;;;6.20;4.37;;;16.30;99.90;;;;;;5093805;28;20210;-78
2023/03/21 10:01:33;;;;;;;7.40;4.40;;;17.10;99.90;;;;;;5093858;28;20203;-78
2023/03/21 10:04:05;;;;;;;7.23;4.77;;;17.20;99.90;;;;;;5093704;28;20302;-77
2023/03/21 10:06:39;;;;;;;6.33;4.70;;;18.10;99.90;;;;;;5093640;28;20310;-78
2023/03/21 10:09:13;;;;;;;7.00;4.30;;;18.40;98.90;;;;;;5073897;28;20196;-76
2023/03/21 10:11:45;;;;;;;7.60;5.00;;;18.30;97.40;;;;;;5075323;28;20231;-76
2023/03/21 10:14:19;;;;;;;5.50;4.90;;;18.30;98.40;;;;;;5077863;28;20203;-77
2023/03/21 10:16:52;;;;;;;6.60;4.83;;;18.50;96.30;;;;;;5094178;28;20241;-78
2023/03/21 10:19:22;;;;;;;6.47;4.67;;;18.40;96.00;;;;;;5096819;28;20215;-75
2023/03/21 10:21:52;;;;;;;5.80;4.90;;;18.40;97.00;;;;;;5094461;28;20210;-78
2023/03/21 10:24:33;;;;;;;5.63;4.47;;;17.90;97.60;;;;;;5096982;28;20195;-76
2023/03/21 10:27:04;;;;;;;6.13;4.70;;;18.10;98.10;;;;;;5091882;28;20214;-76
2023/03/21 10:29:37;;;;;;;4.40;4.00;;;19.00;96.90;;;;;;5099313;28;20191;-78
2023/03/21 10:32:09;;;;;;;5.13;3.90;;;19.30;93.30;;;;;;5099855;28;20226;-78
2023/03/21 10:34:42;;;;;;;6.23;4.27;;;19.20;92.70;;;;;;5101937;28;20235;-77
2023/03/21 10:37:15;;;;;;;5.07;4.23;;;19.00;93.10;;;;;;5094047;28;20270;-77
2023/03/21 10:39:47;;;;;;;5.33;3.90;;;18.80;91.50;;;;;;5093640;28;20298;-78
2023/03/21 10:42:20;;;;;;;5.53;4.37;;;19.40;93.30;;;;;;5091774;28;20345;-76
2023/03/21 10:44:50;;;;;;;6.67;4.20;;;20.00;91.90;;;;;;5096348;28;20216;-78
2023/03/21 10:47:24;;;;;;;7.47;4.07;;;20.20;90.00;;;;;;5095602;28;20210;-77
2023/03/21 10:50:01;;;;;;;5.53;3.80;;;20.10;90.40;;;;;;5092489;28;20315;-78
2023/03/21 10:52:46;;;;;;;4.73;4.10;;;20.90;90.80;;;;;;5094169;28;20198;-76
2023/03/21 10:55:23;;;;;;;4.73;3.67;;;19.90;90.30;;;;;;5093864;28;20203;-77
2023/03/21 10:57:57;;;;;;;4.50;3.70;;;20.70;85.60;;;;;;5092549;28;20211;-77
2023/03/21 11:00:30;;;;;;;4.73;4.10;;;21.40;84.70;;;;;;5095097;28;20190;-77
2023/03/21 11:02:59;;;;;;;4.10;3.70;;;22.00;82.50;;;;;;5092683;28;20323;-76
2023/03/21 11:05:35;;;;;;;4.93;3.50;;;22.50;78.30;;;;;;5092606;28;20331;-77
2023/03/21 11:08:10;;;;;;;5.00;3.60;;;22.50;77.80;;;;;;5096842;28;20210;-77
2023/03/21 11:10:51;;;;;;;6.18;3.65;;;22.90;78.60;;;;;;5092490;28;20277;-76
2023/03/21 11:13:25;;;;;;;4.72;3.33;;;23.00;75.40;;;;;;5092344;28;20226;-76
2023/03/21 11:15:55;;;;;;;3.92;3.30;;;23.50;73.40;;;;;;5091596;28;20230;-75
2023/03/21 11:18:27;;;;;;;3.20;2.83;;;22.90;70.10;;;;;;5092672;28;20215;-77
2023/03/21 11:20:58;;;;;;;3.97;3.28;;;23.00;70.10;;;;;;5093414;28;20213;-77
2023/03/21 11:23:31;;;;;;;4.40;3.55;;;22.80;70.10;;;;;;5091742;28;20211;-77
2023/03/21 11:26:01;;;;;;;4.70;3.60;;;21.90;72.10;;;;;;5092708;28;20226;-77
2023/03/21 11:28:36;;;;;;;4.78;4.00;;;22.10;74.60;;;;;;5092124;28;20660;-76
2023/03/21 11:31:11;;;;;;;4.10;3.70;;;22.10;72.00;;;;;;5092300;28;20299;-77
2023/03/21 11:33:43;;;;;;;5.80;4.10;;;21.60;76.50;;;;;;5090933;28;20206;-78
2023/03/21 11:36:27;;;;;;;5.10;4.20;;;21.00;77.10;;;;;;5091996;28;20226;-76
2023/03/21 11:39:00;;;;;;;5.27;4.20;;;20.30;78.60;;;;;;5092039;28;20207;-77
2023/03/21 11:41:31;;;;;;;6.07;4.17;;;20.50;76.70;;;;;;5091101;28;20222;-76
2023/03/21 11:44:00;;;;;;;6.10;3.87;;;20.30;78.50;;;;;;5091481;28;20297;-77
2023/03/21 11:46:30;;;;;;;4.80;3.80;;;20.70;77.70;;;;;;5092050;28;20306;-77
2023/03/21 11:49:00;;;;;;;4.30;3.90;;;20.40;77.10;;;;;;5091520;28;20686;-78
2023/03/21 11:51:34;;;;;;;5.07;4.20;;;21.00;78.10;;;;;;5091034;28;20245;-76
2023/03/21 11:54:12;;;;;;;4.53;3.87;;;21.10;79.90;;;;;;5091632;28;20201;-78
2023/03/21 11:56:45;;;;;;;5.30;4.00;;;21.50;77.10;;;;;;5095934;28;20202;-77
2023/03/21 11:59:37;;;;;;;6.90;4.50;;;20.90;78.30;;;;;;5095058;28;20239;-76
2023/03/21 12:02:36;;;;;;;5.03;3.90;;;19.80;80.40;;;;;;5095449;28;20203;-76
2023/03/21 12:05:18;;;;;;;6.97;4.50;;;20.40;78.70;;;;;;5095623;28;20214;-78
2023/03/21 12:07:58;;;;;;;6.63;4.80;;;20.00;77.90;;;;;;5094902;28;20224;-76
2023/03/21 12:10:46;;;;;;;7.77;4.43;;;19.60;80.50;;;;;;5095640;28;20211;-76
2023/03/21 12:13:31;;;;;;;5.67;4.43;;;19.10;82.80;;;;;;5094926;28;20214;-75
2023/03/21 12:16:14;;;;;;;6.20;5.17;;;18.90;82.30;;;;;;5078684;28;20195;-78
2023/03/21 12:19:04;;;;;;;6.17;4.97;;;18.30;84.40;;;;;;5077901;28;20290;-76
2023/03/21 12:21:38;;;;;;;6.60;4.63;;;18.40;85.40;;;;;;5095206;28;20580;-77
2023/03/21 12:24:12;;;;;;;7.97;5.10;;;18.50;86.40;;;;;;5095104;28;20263;-77
2023/03/21 12:26:47;;;;;;;8.40;4.90;;;18.00;85.10;;;;;;5095364;28;20297;-76
2023/03/21 12:29:36;;;;;;;5.97;4.73;;;18.10;86.60;;;;;;5095072;28;20230;-76
2023/03/21 12:32:17;;;;;;;7.00;4.83;;;18.30;88.20;;;;;;5094736;28;20230;-77
2023/03/21 12:35:14;;;;;;;7.37;5.20;;;18.30;84.40;;;;;;5093861;28;20234;-78
2023/03/21 12:37:52;;;;;;;4.90;4.40;;;18.10;86.40;;;;;;5095027;28;20226;-75
2023/03/21 12:40:39;;;;;;;8.47;5.20;;;18.00;85.80;;;;;;5095010;28;20191;-76
2023/03/21 12:43:23;;;;;;;6.57;4.80;;;17.70;87.20;;;;;;5093926;28;20614;-77
2023/03/21 12:45:55;;;;;;;5.93;5.00;;;18.40;87.90;;;;;;5094956;28;20207;-78
2023/03/21 12:48:32;;;;;;;6.93;5.37;;;18.60;85.90;;;;;;5095102;28;20191;-76
2023/03/21 12:51:04;;;;;;;7.37;4.83;;;18.60;84.30;;;;;;5093899;28;20214;-77
2023/03/21 12:53:44;;;;;;;7.43;5.00;;;18.60;84.70;;;;;;5093982;28;20286;-76
2023/03/21 12:56:19;;;;;;;7.13;4.67;;;18.90;82.90;;;;;;5094641;28;20195;-77
2023/03/21 12:58:54;;;;;;;5.40;4.60;;;18.70;84.10;;;;;;5093710;28;20305;-76
2023/03/21 13:01:23;;;;;;;8.00;5.53;;;19.00;84.50;;;;;;5094434;28;20282;-76
2023/03/21 13:04:21;;;;;;;6.27;4.83;;;19.00;82.50;;;;;;5093943;28;20206;-77
2023/03/21 13:06:54;;;;;;;6.27;5.10;;;18.50;83.90;;;;;;5093097;28;20205;-78
2023/03/21 13:09:33;;;;;;;6.93;5.23;;;18.60;85.60;;;;;;5094311;28;20199;-75
2023/03/21 13:12:22;;;;;;;6.87;5.13;;;18.40;85.00;;;;;;5094422;28;20337;-79
2023/03/21 13:15:01;;;;;;;7.53;5.10;;;18.10;86.80;;;;;;5093735;28;20202;-76
2023/03/21 13:17:38;;;;;;;7.53;5.20;;;17.80;90.30;;;;;;5094346;28;20241;-76
2023/03/21 13:20:20;;;;;;;6.30;5.47;;;18.20;87.60;;;;;;5094063;28;20201;-77
2023/03/21 13:22:48;;;;;;;6.67;5.13;;;17.70;88.60;;;;;;5093438;28;20225;-76